LFOT/TUF METAR and TAF weather

Enter ICAO airport designator
Station Type Date Time Source
LFOT METAR 2019/06/16 05:00 UTC NOAA

LFOT 160500Z AUTO 15005KT CAVOK 12/11 Q1021 NOSIG


Station Type Date Time Source
LFOT Decoded METAR 2019/06/16 05:00 UTC NOAA

Tours, France (LFOT) 47-27N 000-43E 112M
Jun 16, 2019 - 01:00 AM EDT / 2019.06.16 0500 UTC
Wind: from the SSE (150 degrees) at 6 MPH (5 KT):0
Visibility: greater than 7 mile(s):0
Temperature: 53 F (12 C)
Dew Point: 51 F (11 C)
Relative Humidity: 93%
Pressure (altimeter): 30.15 in. Hg (1021 hPa)
ob: LFOT 160500Z AUTO 15005KT CAVOK 12/11 Q1021 NOSIG
cycle: 5

Station Type Date Time Source
LFOT TAF 2019/06/15 18:21 UTC NOAA

TAF TAF LFOT 151700Z 1518/1618 20006KT CAVOK
TEMPO 1601/1608 BKN006
TEMPO 1608/1615 BKN030

Example: see airport list